FW0373 Weather Reports


time (UTC)temp
C
wind
direction
speed
KPH
gust
KPH
rain 1hr
cm
rain 24hr
cm
rain mn
cm
humidity
%
barometer
mb
20200229100020 12 337 6.4 8.0 0.00 0.00 0.00 72 1015.5
20200229095019 12 135 3.2 4.8 0.00 0.00 0.00 75 1015.7
20200229094018 12 135 1.6 4.8 0.00 0.00 0.00 75 1015.8
20200229093020 12 0.0 0.0 0.00 0.00 0.00 78 1016.1
20200229092020 12 0.0 1.6 0.00 0.00 0.00 75 1016.2
20200229091019 12 135 1.6 1.6 0.00 0.00 0.00 73 1016.4
20200229090019 12 0.0 1.6 0.00 0.00 0.00 74 1016.5
20200229085019 12 0.0 3.2 0.00 0.00 0.00 74 1016.7
20200229084019 12 135 1.6 3.2 0.00 0.00 0.00 73 1016.8
20200229083019 12 0.0 1.6 0.00 0.00 0.00 74 1016.9
20200229082019 12 135 1.6 1.6 0.00 0.00 0.00 72 1017.0
20200229081019 12 0.0 1.6 0.00 0.00 0.00 73 1017.0
20200229080019 12 135 1.6 3.2 0.00 0.00 0.00 73 1017.0
20200229075018 12 0.0 1.6 0.00 0.00 0.00 72 1017.2
20200229074019 12 0.0 3.2 0.00 0.00 0.00 71 1017.4
20200229073019 11 135 1.6 3.2 0.00 0.00 0.00 71 1017.3
20200229072020 11 135 1.6 4.8 0.00 0.00 0.00 71 1017.6
20200229071019 11 135 1.6 3.2 0.00 0.00 0.00 71 1017.6
20200229070019 11 135 1.6 3.2 0.00 0.00 0.00 71 1017.8
20200229065019 11 0.0 0.0 0.00 0.00 0.00 69 1017.9
20200229064020 11 0.0 1.6 0.00 0.00 0.00 69 1017.8
20200229063018 11 0.0 1.6 0.00 0.00 0.00 70 1017.9
20200229062018 11 0.0 1.6 0.00 0.00 0.00 70 1018.0
20200229061019 11 0.0 0.0 0.00 0.00 0.00 70 1017.9
20200229060019 11 0.0 0.0 0.00 0.00 0.00 69 1017.9
20200229055019 11 135 1.6 3.2 0.00 0.00 0.00 68 1018.1
20200229054019 11 0.0 1.6 0.00 0.00 0.00 67 1018.1
20200229053019 12 0.0 0.0 0.00 0.00 0.00 69 1018.2
20200229052019 12 0.0 1.6 0.00 0.00 0.00 66 1018.0
20200229051020 12 135 1.6 3.2 0.00 0.00 0.00 67 1017.9
20200229050019 12 0.0 0.0 0.00 0.00 0.00 69 1017.9
20200229045019 12 0.0 1.6 0.00 0.00 0.00 64 1017.7
20200229044019 13 0.0 1.6 0.00 0.00 0.00 63 1017.6
20200229043018 13 0.0 1.6 0.00 0.00 0.00 64 1017.7
20200229042020 13 0.0 0.0 0.00 0.00 0.00 63 1017.8
20200229041019 13 0.0 1.6 0.00 0.00 0.00 62 1018.0
20200229040019 14 0.0 0.0 0.00 0.00 0.00 58 1017.9
20200229035018 15 0.0 0.0 0.00 0.00 0.00 58 1017.9
20200229034019 15 0.0 0.0 0.00 0.00 0.00 59 1017.8
20200229033345 15 0.0 0.0 0.00 0.00 0.00 57 1017.8
20200229032019 16 0.0 0.0 0.00 0.00 0.00 55 1017.8
20200229031025 16 0.0 0.0 0.00 0.00 0.00 55 1017.7
20200229030019 17 0.0 0.0 0.00 0.00 0.00 54 1017.4
20200229025018 17 0.0 1.6 0.00 0.00 0.00 51 1017.3
20200229024019 18 135 1.6 1.6 0.00 0.00 0.00 48 1017.2
20200229023027 19 0.0 1.6 0.00 0.00 0.00 47 1017.1
20200229022019 20 0.0 1.6 0.00 0.00 0.00 44 1017.0
20200229021019 20 0.0 3.2 0.00 0.00 0.00 43 1016.9
20200229020018 21 135 1.6 3.2 0.00 0.00 0.00 41 1016.8
20200229012018 23 135 1.6 3.2 0.00 0.00 0.00 30 1016.6
20200229011019 23 202 1.6 3.2 0.00 0.00 0.00 30 1016.7
20200229010019 23 202 1.6 3.2 0.00 0.00 0.00 28 1016.7
20200229005018 24 247 3.2 6.4 0.00 0.00 0.00 29 1016.6
20200229004018 24 225 3.2 6.4 0.00 0.00 0.00 30 1017.0
20200229003020 25 225 1.6 4.8 0.00 0.00 0.00 29 1016.6
20200229002018 25 225 1.6 4.8 0.00 0.00 0.00 29 1016.6
20200229001019 25 225 1.6 6.4 0.00 0.00 0.00 27 1016.8
20200229000019 25 247 6.4 12.9 0.00 0.00 0.00 23 1017.1
20200228235018 25 247 6.4 11.3 0.00 0.00 0.00 21 1017.1
20200228234018 26 225 6.4 12.9 0.00 0.00 0.00 23 1017.0
20200228233018 26 225 4.8 11.3 0.00 0.00 0.00 24 1016.9
20200228232019 26 247 6.4 12.9 0.00 0.00 0.00 25 1017.1
20200228231018 26 247 6.4 14.5 0.00 0.00 0.00 26 1017.0
20200228230018 26 247 8.0 14.5 0.00 0.00 0.00 25 1017.1
20200228225018 27 270 8.0 14.5 0.00 0.00 0.00 26 1016.8
20200228224019 27 247 8.0 17.7 0.00 0.00 0.00 24 1016.8
20200228223018 27 247 8.0 16.1 0.00 0.00 0.00 23 1016.8
20200228222019 28 225 6.4 12.9 0.00 0.00 0.00 16 1017.2
20200228221018 28 225 6.4 12.9 0.00 0.00 0.00 17 1017.2
20200228220018 28 202 6.4 9.7 0.00 0.00 0.00 16 1017.1
20200228215018 28 247 6.4 11.3 0.00 0.00 0.00 17 1017.3
20200228214018 28 225 6.4 11.3 0.00 0.00 0.00 19 1017.2
20200228213019 28 247 6.4 11.3 0.00 0.00 0.00 18 1017.1
20200228212018 28 225 3.2 9.7 0.00 0.00 0.00 17 1017.2
20200228211018 28 247 4.8 9.7 0.00 0.00 0.00 17 1017.2
20200228210018 28 202 3.2 8.0 0.00 0.00 0.00 18 1017.3
20200228205018 28 225 6.4 11.3 0.00 0.00 0.00 19 1017.2
20200228204018 28 225 3.2 6.4 0.00 0.00 0.00 19 1017.2
20200228203018 28 180 4.8 8.0 0.00 0.00 0.00 19 1017.0
20200228202018 28 67 3.2 6.4 0.00 0.00 0.00 20 1017.4
20200228201018 28 67 4.8 11.3 0.00 0.00 0.00 20 1017.2
20200228200019 27 0 3.2 9.7 0.00 0.00 0.00 19 1017.4
20200228195018 27 315 3.2 8.0 0.00 0.00 0.00 19 1017.6
20200228194019 27 315 6.4 9.7 0.00 0.00 0.00 19 1017.8
20200228193018 27 337 4.8 8.0 0.00 0.00 0.00 21 1017.9
20200228192018 26 270 1.6 6.4 0.00 0.00 0.00 19 1018.2
20200228191017 26 337 4.8 11.3 0.00 0.00 0.00 20 1018.4
20200228190019 26 45 3.2 8.0 0.00 0.00 0.00 20 1018.6
20200228185017 25 45 3.2 9.7 0.00 0.00 0.00 19 1018.6
20200228184018 25 292 4.8 16.1 0.00 0.00 0.00 21 1018.8
20200228183019 25 0 6.4 12.9 0.00 0.00 0.00 19 1018.8
20200228182019 25 0 8.0 14.5 0.00 0.00 0.00 21 1018.9
20200228181017 24 0 8.0 14.5 0.00 0.00 0.00 24 1019.0
20200228180018 24 0 9.7 14.5 0.00 0.00 0.00 21 1018.9
20200228175018 23 22 9.7 17.7 0.00 0.00 0.00 25 1019.0
20200228174018 22 0 9.7 16.1 0.00 0.00 0.00 26 1018.9
20200228173018 22 0 6.4 12.9 0.00 0.00 0.00 25 1019.1
20200228172017 22 22 4.8 11.3 0.00 0.00 0.00 24 1019.2
20200228171017 21 22 3.2 4.8 0.00 0.00 0.00 29 1019.2
20200228170017 20 0 4.8 6.4 0.00 0.00 0.00 35 1019.3
20200228165018 20 0 4.8 8.0 0.00 0.00 0.00 37 1019.5
20200228164019 18 0.0 3.2 0.00 0.00 0.00 37 1019.8
20200228163017 18 315 1.6 3.2 0.00 0.00 0.00 37 1019.6
20200228162017 17 0.0 1.6 0.00 0.00 0.00 38 1019.4
20200228161017 17 22 1.6 4.8 0.00 0.00 0.00 44 1019.3
20200228160018 16 22 4.8 8.0 0.00 0.00 0.00 41 1018.8
20200228155017 16 22 6.4 8.0 0.00 0.00 0.00 43 1018.9
20200228154017 15 22 6.4 11.3 0.00 0.00 0.00 43 1018.8
20200228153018 15 0 1.6 4.8 0.00 0.00 0.00 46 1018.8
20200228152017 14 337 4.8 8.0 0.00 0.00 0.00 54 1018.4
20200228151018 13 337 3.2 4.8 0.00 0.00 0.00 56 1018.3
20200228150017 12 337 1.6 3.2 0.00 0.00 0.00 54 1018.5
20200228145018 12 0.0 1.6 0.00 0.00 0.00 54 1018.5
20200228144018 11 337 1.6 3.2 0.00 0.00 0.00 59 1018.3
20200228143018 11 337 1.6 4.8 0.00 0.00 0.00 58 1018.0
20200228142017 11 337 4.8 6.4 0.00 0.00 0.00 58 1017.7
20200228141017 11 0.0 1.6 0.00 0.00 0.00 58 1017.8
20200228140017 11 0.0 1.6 0.00 0.00 0.00 57 1017.5
20200228135017 11 22 3.2 6.4 0.00 0.00 0.00 59 1017.0
20200228134017 10 0 8.0 11.3 0.00 0.00 0.00 64 1016.9
20200228133018 9 0 6.4 8.0 0.00 0.00 0.00 68 1017.1
20200228132019 8 0 4.8 6.4 0.00 0.00 0.00 72 1017.1
20200228131019 8 45 1.6 3.2 0.00 0.00 0.00 74 1017.5
20200228130019 8 0.0 1.6 0.00 0.00 0.00 75 1017.5
20200228125020 8 45 1.6 1.6 0.00 0.00 0.00 73 1017.4
20200228124019 9 45 1.6 3.2 0.00 0.00 0.00 69 1017.4
20200228123019 10 0.0 1.6 0.00 0.00 0.00 69 1017.4
20200228122019 10 45 1.6 3.2 0.00 0.00 0.00 66 1017.3
20200228121019 10 45 1.6 3.2 0.00 0.00 0.00 71 1017.2
20200228120020 10 45 3.2 3.2 0.00 0.00 0.00 72 1016.9
20200228115019 9 45 1.6 3.2 0.00 0.00 0.00 74 1017.0
20200228114020 8 45 3.2 4.8 0.00 0.00 0.00 78 1016.9
20200228113019 8 45 1.6 3.2 0.00 0.00 0.00 76 1017.0
20200228112019 8 45 1.6 3.2 0.00 0.00 0.00 76 1017.2
20200228111019 8 45 1.6 3.2 0.00 0.00 0.00 76 1017.2
20200228110020 8 0.0 1.6 0.00 0.00 0.00 78 1017.0
20200228105019 9 0.0 1.6 0.00 0.00 0.00 77 1017.1
20200228104019 9 45 1.6 1.6 0.00 0.00 0.00 77 1016.9
20200228103019 9 0.0 1.6 0.00 0.00 0.00 77 1016.8
20200228102019 10 0.0 0.0 0.00 0.00 0.00 74 1016.6
20200228101019 10 45 1.6 3.2 0.00 0.00 0.00 74 1016.7